TimeEDT,TemperatureF,Dew PointF,Humidity,Sea Level PressureIn,VisibilityMPH,Wind Direction,Wind SpeedMPH,Gust SpeedMPH,PrecipitationIn,Events,Conditions,WindDirDegrees,DateUTC
12:15 AM,53.8,51.1,91,30.24,10.0,Calm,Calm,-,N/A,,Clear,0,2013-09-28 04:15:00
12:35 AM,53.4,50.7,91,30.24,10.0,Calm,Calm,-,N/A,,Clear,0,2013-09-28 04:35:00
12:55 AM,52.0,49.1,90,30.24,10.0,Calm,Calm,-,N/A,,Clear,0,2013-09-28 04:55:00
1:15 AM,50.2,47.5,90,30.24,10.0,Calm,Calm,-,N/A,,Clear,0,2013-09-28 05:15:00
1:35 AM,50.0,47.3,90,30.23,10.0,Calm,Calm,-,N/A,,Clear,0,2013-09-28 05:35:00
1:55 AM,50.0,47.7,92,30.23,10.0,Calm,Calm,-,N/A,,Clear,0,2013-09-28 05:55:00
2:15 AM,51.1,48.6,91,30.23,10.0,Calm,Calm,-,N/A,,Clear,0,2013-09-28 06:15:00
2:35 AM,51.3,48.4,90,30.22,10.0,Calm,Calm,-,N/A,,Scattered Clouds,0,2013-09-28 06:35:00
2:55 AM,52.2,49.3,90,30.22,10.0,Calm,Calm,-,N/A,,Clear,0,2013-09-28 06:55:00
3:15 AM,51.3,48.6,90,30.22,10.0,Calm,Calm,-,N/A,,Clear,0,2013-09-28 07:15:00
3:35 AM,55.8,53.2,91,30.21,10.0,Calm,Calm,-,N/A,,Clear,0,2013-09-28 07:35:00
3:55 AM,51.4,48.6,90,30.22,10.0,Calm,Calm,-,N/A,,Clear,0,2013-09-28 07:55:00
4:15 AM,55.4,52.7,91,30.22,10.0,Calm,Calm,-,N/A,,Scattered Clouds,0,2013-09-28 08:15:00
4:35 AM,56.1,53.6,91,30.22,10.0,NNW,3.5,-,N/A,,Mostly Cloudy,330,2013-09-28 08:35:00
4:55 AM,57.4,54.9,91,30.22,10.0,NNW,3.5,-,N/A,,Overcast,340,2013-09-28 08:55:00
5:15 AM,58.1,55.4,91,30.23,10.0,NNW,3.5,-,N/A,,Overcast,340,2013-09-28 09:15:00
5:35 AM,58.3,55.0,89,30.23,10.0,NNW,3.5,-,N/A,,Overcast,330,2013-09-28 09:35:00
5:55 AM,58.1,54.5,88,30.23,10.0,NNW,4.6,-,N/A,,Scattered Clouds,340,2013-09-28 09:55:00
6:15 AM,57.7,54.5,89,30.24,10.0,North,3.5,-,N/A,,Clear,360,2013-09-28 10:15:00
6:35 AM,57.4,54.0,88,30.24,10.0,Calm,Calm,-,N/A,,Clear,0,2013-09-28 10:35:00
6:55 AM,57.4,54.0,88,30.24,10.0,North,3.5,-,N/A,,Clear,360,2013-09-28 10:55:00
7:15 AM,57.6,54.0,88,30.25,10.0,North,3.5,-,N/A,,Clear,10,2013-09-28 11:15:00
7:35 AM,58.5,54.5,87,30.25,10.0,North,4.6,-,N/A,,Mostly Cloudy,10,2013-09-28 11:35:00
7:55 AM,59.5,54.7,84,30.26,10.0,North,4.6,-,N/A,,Overcast,10,2013-09-28 11:55:00
8:15 AM,60.8,54.9,81,30.26,10.0,North,3.5,-,N/A,,Overcast,360,2013-09-28 12:15:00
8:35 AM,61.7,55.4,80,30.26,10.0,North,4.6,-,N/A,,Overcast,360,2013-09-28 12:35:00
8:55 AM,62.8,55.6,77,30.27,10.0,North,4.6,-,N/A,,Overcast,350,2013-09-28 12:55:00
9:15 AM,64.0,55.6,74,30.27,10.0,North,4.6,-,N/A,,Overcast,10,2013-09-28 13:15:00
9:35 AM,65.1,55.9,72,30.28,10.0,NNE,5.8,-,N/A,,Overcast,20,2013-09-28 13:35:00
9:55 AM,65.3,55.9,72,30.29,10.0,North,5.8,-,N/A,,Overcast,10,2013-09-28 13:55:00
10:15 AM,66.6,56.5,70,30.29,10.0,NNE,8.1,-,N/A,,Overcast,20,2013-09-28 14:15:00
10:35 AM,67.6,56.5,67,30.29,10.0,North,5.8,-,N/A,,Overcast,10,2013-09-28 14:35:00
10:55 AM,68.7,56.1,64,30.29,10.0,NNE,6.9,-,N/A,,Overcast,20,2013-09-28 14:55:00
11:15 AM,69.3,55.9,62,30.29,10.0,NNE,5.8,-,N/A,,Overcast,20,2013-09-28 15:15:00
11:35 AM,69.8,55.6,61,30.29,10.0,North,5.8,-,N/A,,Overcast,10,2013-09-28 15:35:00
11:55 AM,70.9,55.9,59,30.29,10.0,NNE,10.4,-,N/A,,Overcast,30,2013-09-28 15:55:00
12:15 PM,70.3,55.6,59,30.28,10.0,North,9.2,-,N/A,,Overcast,10,2013-09-28 16:15:00
12:35 PM,70.7,55.6,59,30.28,10.0,North,4.6,-,N/A,,Overcast,10,2013-09-28 16:35:00
12:55 PM,71.4,55.0,56,30.28,10.0,NNE,6.9,-,N/A,,Overcast,30,2013-09-28 16:55:00
1:15 PM,71.2,53.6,54,30.27,10.0,NE,6.9,-,N/A,,Overcast,50,2013-09-28 17:15:00
1:35 PM,72.3,53.4,51,30.26,10.0,NE,9.2,-,N/A,,Overcast,40,2013-09-28 17:35:00
1:55 PM,71.8,52.5,51,30.26,10.0,ENE,8.1,-,N/A,,Overcast,60,2013-09-28 17:55:00
2:15 PM,72.5,52.3,49,30.25,10.0,NE,8.1,-,N/A,,Overcast,50,2013-09-28 18:15:00
2:35 PM,72.1,52.7,50,30.25,10.0,ENE,9.2,-,N/A,,Overcast,60,2013-09-28 18:35:00
2:55 PM,72.0,52.5,50,30.24,10.0,NNE,6.9,-,N/A,,Overcast,30,2013-09-28 18:55:00
3:15 PM,72.5,54.1,52,30.24,10.0,North,8.1,-,N/A,,Overcast,10,2013-09-28 19:15:00
3:35 PM,73.0,54.9,53,30.24,10.0,NE,6.9,-,N/A,,Overcast,40,2013-09-28 19:35:00
3:55 PM,72.1,54.0,53,30.23,10.0,North,8.1,-,N/A,,Overcast,10,2013-09-28 19:55:00
4:15 PM,71.6,54.1,54,30.23,10.0,North,5.8,-,N/A,,Overcast,360,2013-09-28 20:15:00
4:35 PM,71.6,53.1,52,30.23,10.0,NE,5.8,-,N/A,,Overcast,40,2013-09-28 20:35:00
4:55 PM,71.1,53.6,54,30.23,10.0,NE,4.6,-,N/A,,Overcast,40,2013-09-28 20:55:00
5:15 PM,70.3,54.5,57,30.23,10.0,NNE,3.5,-,N/A,,Overcast,30,2013-09-28 21:15:00
5:35 PM,70.0,55.2,59,30.23,10.0,Calm,Calm,-,N/A,,Overcast,0,2013-09-28 21:35:00
5:55 PM,69.8,55.8,61,30.23,10.0,Calm,Calm,-,N/A,,Overcast,0,2013-09-28 21:55:00
6:15 PM,69.1,55.8,62,30.23,10.0,NNE,3.5,-,N/A,,Overcast,20,2013-09-28 22:15:00
6:35 PM,68.5,56.3,65,30.23,10.0,Calm,Calm,-,N/A,,Overcast,0,2013-09-28 22:35:00
6:55 PM,67.3,56.3,68,30.23,10.0,NNE,3.5,-,N/A,,Mostly Cloudy,20,2013-09-28 22:55:00
7:15 PM,65.8,56.7,72,30.22,10.0,Calm,Calm,-,N/A,,Mostly Cloudy,0,2013-09-28 23:15:00
7:35 PM,64.6,57.2,77,30.22,10.0,Calm,Calm,-,N/A,,Mostly Cloudy,0,2013-09-28 23:35:00
7:55 PM,64.2,57.6,79,30.23,10.0,North,3.5,-,N/A,,Overcast,350,2013-09-28 23:55:00
8:15 PM,64.9,57.2,76,30.23,10.0,NNW,3.5,-,N/A,,Overcast,330,2013-09-29 00:15:00
8:35 PM,65.3,57.4,76,30.24,10.0,NNW,3.5,-,N/A,,Overcast,340,2013-09-29 00:35:00
8:55 PM,65.5,57.0,74,30.24,10.0,ENE,5.8,-,N/A,,Overcast,60,2013-09-29 00:55:00
9:15 PM,66.0,56.5,71,30.24,10.0,NE,3.5,-,N/A,,Overcast,50,2013-09-29 01:15:00
9:35 PM,65.7,56.3,72,30.24,10.0,ENE,3.5,-,N/A,,Overcast,60,2013-09-29 01:35:00
9:55 PM,63.3,56.7,79,30.24,10.0,NNE,3.5,-,N/A,,Scattered Clouds,30,2013-09-29 01:55:00
10:15 PM,62.6,56.5,80,30.23,10.0,Calm,Calm,-,N/A,,Clear,0,2013-09-29 02:15:00
10:35 PM,59.2,54.5,84,30.23,10.0,Calm,Calm,-,N/A,,Clear,0,2013-09-29 02:35:00
10:55 PM,58.3,54.7,88,30.23,10.0,Calm,Calm,-,N/A,,Clear,0,2013-09-29 02:55:00
11:15 PM,56.7,53.4,89,30.22,10.0,Calm,Calm,-,N/A,,Clear,0,2013-09-29 03:15:00
11:35 PM,54.9,52.0,90,30.21,10.0,Calm,Calm,-,N/A,,Clear,0,2013-09-29 03:35:00
11:55 PM,53.8,50.9,90,30.21,10.0,Calm,Calm,-,N/A,,Clear,0,2013-09-29 03:55:00